Time;durP1;ratioP1;P1;durP2;ratioP2;P2;SDS_P1;SDS_P2;PMS_P1;PMS_P2;Temp;Humidity;BMP_temperature;BMP_pressure;BME280_temperature;BME280_humidity;BME280_pressure;Samples;Min_cycle;Max_cycle;Signal;HPM_P1;HPM_P2
2022/09/20 00:01:13;;;;;;;5.33;3.92;;;;;;;12.57;72.44;100703.53;1758845;81;21233;-92
2022/09/20 00:03:45;;;;;;;4.17;3.20;;;;;;;12.56;72.61;100692.66;1758812;80;20924;-93
2022/09/20 00:06:17;;;;;;;3.98;3.37;;;;;;;12.53;72.55;100691.53;1759017;81;21098;-93
2022/09/20 00:08:44;;;;;;;7.03;3.75;;;;;;;12.51;72.43;100697.84;1759354;81;20888;-92
2022/09/20 00:11:19;;;;;;;7.45;3.67;;;;;;;12.48;72.12;100696.74;1759098;80;20924;-90
2022/09/20 00:13:49;;;;;;;4.28;3.87;;;;;;;12.45;72.35;100693.84;1759120;81;21243;-91
2022/09/20 00:16:24;;;;;;;6.45;4.55;;;;;;;12.41;72.50;100693.20;1758929;81;20869;-91
2022/09/20 00:18:53;;;;;;;5.27;2.97;;;;;;;12.37;72.73;100690.39;1759155;81;20935;-90
2022/09/20 00:21:22;;;;;;;5.95;3.62;;;;;;;12.33;72.92;100683.65;1758944;81;20995;-91
2022/09/20 00:23:49;;;;;;;2.70;1.80;;;;;;;12.30;73.02;100675.98;1759137;80;20975;-90
2022/09/20 00:26:17;;;;;;;2.65;1.50;;;;;;;12.26;72.33;100668.39;1759061;81;21228;-91
2022/09/20 00:28:48;;;;;;;4.03;3.27;;;;;;;12.22;71.83;100670.38;1758598;81;20881;-91
2022/09/20 00:31:14;;;;;;;11.60;3.60;;;;;;;12.19;72.26;100669.27;1758510;80;20845;-90
2022/09/20 00:36:28;;;;;;;5.08;2.55;;;;;;;12.18;70.00;100657.92;1759354;81;20916;-88
2022/09/20 00:39:00;;;;;;;3.08;1.80;;;;;;;12.19;70.87;100654.33;1760352;81;21084;-88
2022/09/20 00:41:28;;;;;;;4.20;3.00;;;;;;;12.18;69.62;100650.48;1759321;80;21358;-91
2022/09/20 00:43:54;;;;;;;6.37;2.60;;;;;;;12.19;69.91;100642.98;1758591;81;21536;-91
2022/09/20 00:46:38;;;;;;;5.03;3.45;;;;;;;12.20;69.79;100651.22;1758974;81;20991;-91
2022/09/20 00:49:18;;;;;;;15.40;11.75;;;;;;;12.22;70.30;100646.70;1743035;81;20928;-91
2022/09/20 00:51:47;;;;;;;6.92;4.40;;;;;;;12.22;71.23;100643.59;1758554;81;21235;-91
2022/09/20 00:54:15;;;;;;;5.08;3.67;;;;;;;12.24;71.67;100643.51;1758463;81;20892;-91
2022/09/20 00:56:42;;;;;;;4.72;3.45;;;;;;;12.22;71.62;100642.28;1758535;80;20940;-92
2022/09/20 00:59:20;;;;;;;3.83;2.90;;;;;;;12.19;72.27;100639.88;1758821;81;21022;-91
2022/09/20 01:01:51;;;;;;;4.83;3.55;;;;;;;12.17;72.11;100640.44;1758484;80;20958;-91
2022/09/20 01:04:20;;;;;;;3.85;3.12;;;;;;;12.14;72.58;100636.72;1758688;81;21198;-92
2022/09/20 01:06:46;;;;;;;4.80;2.95;;;;;;;12.13;72.65;100637.64;1758512;81;20935;-92
2022/09/20 01:09:13;;;;;;;4.15;3.08;;;;;;;12.12;72.98;100637.28;1718607;81;20853;-91
2022/09/20 01:11:40;;;;;;;3.17;2.50;;;;;;;12.12;73.39;100639.08;1719930;78;20951;-90
2022/09/20 01:14:07;;;;;;;3.17;2.92;;;;;;;12.09;73.46;100634.84;1760266;81;20873;-89
2022/09/20 01:16:33;;;;;;;4.97;3.00;;;;;;;12.06;73.46;100628.48;1759871;81;21209;-89
2022/09/20 01:19:03;;;;;;;4.00;3.00;;;;;;;12.01;73.46;100635.84;1758619;81;20924;-91
2022/09/20 01:21:30;;;;;;;3.87;2.70;;;;;;;11.97;73.52;100633.03;1759172;81;20964;-91
2022/09/20 01:24:17;;;;;;;4.12;3.52;;;;;;;11.92;73.60;100633.81;1758309;81;20881;-91
2022/09/20 01:27:14;;;;;;;3.00;2.80;;;;;;;11.85;73.79;100637.73;1758620;81;20893;-91
2022/09/20 01:30:04;;;;;;;4.40;3.27;;;;;;;11.77;74.01;100635.14;1758844;81;21128;-91
2022/09/20 01:32:49;;;;;;;2.92;2.70;;;;;;;11.70;74.21;100633.86;1758385;81;20928;-91
2022/09/20 01:35:16;;;;;;;7.22;3.83;;;;;;;11.60;74.37;100629.68;1758888;80;20944;-91
2022/09/20 01:38:16;;;;;;;8.98;3.98;;;;;;;11.52;74.61;100625.38;1758492;81;20920;-91
2022/09/20 01:41:17;;;;;;;3.27;2.98;;;;;;;11.45;74.83;100627.16;1758916;81;20905;-91
2022/09/20 01:44:10;;;;;;;4.45;2.85;;;;;;;11.33;75.02;100620.91;1758581;80;21194;-91
2022/09/20 01:46:37;;;;;;;5.62;3.35;;;;;;;11.20;75.50;100616.45;1739281;82;20902;-91
2022/09/20 01:49:35;;;;;;;6.70;3.40;;;;;;;11.11;76.14;100609.60;1740760;82;20934;-91
2022/09/20 01:52:25;;;;;;;4.30;3.30;;;;;;;11.08;76.59;100614.58;1740062;81;21001;-92
2022/09/20 01:55:29;;;;;;;4.53;2.92;;;;;;;11.07;76.64;100619.91;1733086;81;20911;-90
2022/09/20 01:58:35;;;;;;;6.03;3.12;;;;;;;11.03;76.45;100619.72;1740214;82;21134;-90
2022/09/20 02:01:25;;;;;;;5.83;2.90;;;;;;;10.98;76.41;100622.63;1740162;81;20985;-92
2022/09/20 02:04:18;;;;;;;5.15;3.17;;;;;;;10.94;76.60;100617.23;1721227;82;20982;-91
2022/09/20 02:07:19;;;;;;;5.03;3.00;;;;;;;10.88;76.72;100616.28;1722982;82;21504;-91
2022/09/20 02:09:57;;;;;;;4.00;3.35;;;;;;;10.84;77.09;100622.66;1740384;81;20863;-89
2022/09/20 02:12:50;;;;;;;3.60;3.30;;;;;;;10.82;77.61;100618.80;1740799;81;21366;-89
2022/09/20 02:15:45;;;;;;;3.72;3.10;;;;;;;10.84;77.78;100615.62;1740781;81;20903;-90
2022/09/20 02:18:43;;;;;;;6.03;3.12;;;;;;;10.86;77.95;100615.05;1740428;81;28265;-89
2022/09/20 02:21:30;;;;;;;3.77;2.70;;;;;;;10.90;78.01;100610.00;1740690;81;21037;-92
2022/09/20 02:24:26;;;;;;;6.85;3.45;;;;;;;10.92;77.88;100616.00;1758537;81;20931;-90
2022/09/20 02:27:35;;;;;;;7.22;3.47;;;;;;;10.92;77.77;100610.75;1740498;82;20906;-90
2022/09/20 02:30:45;;;;;;;5.50;3.55;;;;;;;10.91;77.66;100609.52;1741491;82;20918;-90
2022/09/20 02:33:35;;;;;;;6.30;2.80;;;;;;;10.88;77.57;100608.41;1743229;79;20910;-92
2022/09/20 02:36:13;;;;;;;6.85;3.87;;;;;;;10.84;77.79;100603.81;1740472;82;21001;-91
2022/09/20 02:39:14;;;;;;;3.50;3.10;;;;;;;10.85;77.96;100605.96;1737962;81;20958;-91
2022/09/20 02:41:58;;;;;;;6.37;3.35;;;;;;;10.86;77.96;100599.80;1732363;81;21399;-91
2022/09/20 02:44:42;;;;;;;4.40;2.90;;;;;;;10.84;78.05;100609.05;1732448;82;21620;-91
2022/09/20 02:47:36;;;;;;;5.47;3.02;;;;;;;10.81;78.02;100605.33;1732851;82;21057;-90
2022/09/20 02:50:44;;;;;;;5.67;3.12;;;;;;;10.83;78.00;100607.83;1732808;82;20907;-91
2022/09/20 02:53:43;;;;;;;5.90;3.25;;;;;;;10.82;77.98;100614.03;1732441;82;21076;-90
2022/09/20 02:56:36;;;;;;;3.47;3.17;;;;;;;10.82;78.20;100605.69;1733124;82;21399;-89
2022/09/20 02:59:23;;;;;;;4.05;3.65;;;;;;;10.83;78.22;100613.08;1733189;82;20922;-89
2022/09/20 03:02:09;;;;;;;17.82;13.22;;;;;;;10.85;78.30;100613.83;1690294;81;20931;-90
2022/09/20 03:05:03;;;;;;;10.58;7.60;;;;;;;10.86;78.28;100616.37;1754072;82;20873;-91
2022/09/20 03:08:08;;;;;;;7.08;4.92;;;;;;;10.87;78.20;100616.77;1753268;81;20873;-91
2022/09/20 03:11:02;;;;;;;5.70;4.50;;;;;;;10.88;78.28;100616.28;1753503;82;21240;-91
2022/09/20 03:13:49;;;;;;;8.10;6.33;;;;;;;10.92;78.38;100617.79;1753326;80;20989;-92
2022/09/20 03:16:46;;;;;;;10.90;7.87;;;;;;;10.90;78.35;100609.16;1749640;81;20924;-93
2022/09/20 03:19:33;;;;;;;12.18;6.78;;;;;;;10.86;78.49;100611.13;1753135;81;20972;-91
2022/09/20 03:22:24;;;;;;;6.62;5.90;;;;;;;10.84;78.81;100609.53;1744322;81;21010;-91
2022/09/20 03:25:02;;;;;;;6.90;5.97;;;;;;;10.86;79.05;100612.44;1753097;80;21406;-91
2022/09/20 03:27:59;;;;;;;6.85;5.83;;;;;;;10.92;78.93;100609.44;1753427;81;20912;-92
2022/09/20 03:30:46;;;;;;;11.48;6.50;;;;;;;10.95;78.87;100609.23;1734344;81;20912;-91
2022/09/20 03:33:57;;;;;;;7.15;5.15;;;;;;;10.97;78.74;100605.22;1728253;80;20925;-91
2022/09/20 03:36:36;;;;;;;8.10;5.65;;;;;;;10.96;78.54;100607.00;1731153;81;20853;-92
2022/09/20 03:39:13;;;;;;;8.08;5.15;;;;;;;10.96;78.61;100607.00;1755708;80;21228;-93
2022/09/20 03:42:06;;;;;;;6.92;4.87;;;;;;;10.96;78.59;100608.77;1758778;81;20936;-92
2022/09/20 03:45:10;;;;;;;8.28;4.40;;;;;;;10.95;78.63;100614.96;1758637;81;20948;-90
2022/09/20 03:47:54;;;;;;;9.38;4.90;;;;;;;10.95;78.66;100611.86;1759204;81;20916;-91
2022/09/20 03:50:39;;;;;;;10.03;5.37;;;;;;;10.94;78.81;100606.25;1760691;78;21154;-91
2022/09/20 03:53:49;;;;;;;7.70;3.85;;;;;;;10.96;78.95;100611.39;1761081;78;21317;-88
2022/09/20 03:56:38;;;;;;;5.05;4.45;;;;;;;10.97;78.96;100604.74;1759824;81;20837;-93
2022/09/20 03:59:27;;;;;;;6.67;4.15;;;;;;;10.99;78.93;100604.66;1749389;81;21377;-93
2022/09/20 04:02:45;;;;;;;6.87;5.37;;;;;;;11.00;79.01;100602.39;1758160;81;21046;-91
2022/09/20 04:05:24;;;;;;;;;;;;;;;10.98;79.28;100605.58;1761488;80;20920;-91
2022/09/20 04:08:06;;;;;;;4.67;3.77;;;;;;;10.96;79.47;100611.39;1758507;81;21920;-91
2022/09/20 04:11:07;;;;;;;5.58;4.78;;;;;;;10.95;79.55;100598.74;1758446;81;20971;-91
2022/09/20 04:13:43;;;;;;;9.35;4.42;;;;;;;10.96;79.54;100600.89;1728901;81;20888;-92
2022/09/20 04:16:34;;;;;;;8.23;3.87;;;;;;;10.98;79.15;100605.13;1758903;81;20932;-93
2022/09/20 04:19:26;;;;;;;13.55;4.50;;;;;;;11.00;78.91;100606.33;1758986;81;20939;-93
2022/09/20 04:21:56;;;;;;;14.70;6.17;;;;;;;11.05;78.26;100603.42;1752809;81;21238;-94
2022/09/20 04:24:32;;;;;;;18.48;9.65;;;;;;;11.12;78.61;100606.06;1759075;81;20975;-92
2022/09/20 04:27:07;;;;;;;19.98;7.47;;;;;;;11.19;78.37;100615.23;1759120;81;20963;-92
2022/09/20 04:30:00;;;;;;;14.95;6.37;;;;;;;11.28;76.92;100629.56;1758802;81;20960;-92
2022/09/20 04:33:00;;;;;;;8.43;5.58;;;;;;;11.38;76.99;100632.83;1758955;81;21346;-90
2022/09/20 04:38:51;;;;;;;3.85;2.35;;;;;;;11.65;73.84;100625.89;1758594;80;21154;-91
2022/09/20 04:41:48;;;;;;;4.90;1.65;;;;;;;11.86;72.03;100622.36;1758638;81;20919;-90
2022/09/20 04:44:47;;;;;;;6.33;2.00;;;;;;;12.02;70.97;100617.31;1756754;81;21370;-91
2022/09/20 04:47:53;;;;;;;2.02;1.82;;;;;;;12.22;69.37;100609.90;1759813;81;20956;-92
2022/09/20 04:50:47;;;;;;;2.20;1.60;;;;;;;12.43;68.43;100627.35;1757332;81;20935;-92
2022/09/20 04:53:45;;;;;;;4.03;1.62;;;;;;;12.59;68.90;100618.77;1758528;81;20928;-90
2022/09/20 04:56:57;;;;;;;1.82;1.47;;;;;;;12.69;68.83;100624.23;1758797;81;20985;-92
2022/09/20 05:00:07;;;;;;;4.00;2.50;;;;;;;12.76;69.71;100635.18;1758883;81;21481;-92
2022/09/20 05:02:54;;;;;;;7.03;3.70;;;;;;;12.75;70.72;100623.82;1760159;81;20947;-91
2022/09/20 05:06:04;;;;;;;3.92;2.62;;;;;;;12.76;71.46;100635.18;1761621;78;21153;-93
2022/09/20 05:09:00;;;;;;;12.33;5.67;;;;;;;12.74;72.50;100634.44;1759380;80;20990;-93
2022/09/20 05:11:46;;;;;;;14.73;8.70;;;;;;;12.73;73.23;100630.14;1759246;81;20885;-91
2022/09/20 05:14:23;;;;;;;17.82;10.90;;;;;;;12.70;73.84;100618.52;1758858;81;20908;-92
2022/09/20 05:17:24;;;;;;;23.42;10.60;;;;;;;12.68;74.25;100621.73;1758586;81;21374;-90
2022/09/20 05:20:14;;;;;;;14.63;7.95;;;;;;;12.65;74.76;100624.94;1758873;81;22310;-91
2022/09/20 05:23:18;;;;;;;12.03;5.72;;;;;;;12.61;75.13;100617.36;1758684;81;20944;-91
2022/09/20 05:26:34;;;;;;;7.95;4.28;;;;;;;12.59;75.47;100609.56;1732896;81;20876;-90
2022/09/20 05:29:22;;;;;;;8.83;3.33;;;;;;;12.57;75.95;100609.30;1758557;81;20936;-93
2022/09/20 05:32:10;;;;;;;5.67;3.08;;;;;;;12.57;76.40;100604.88;1756875;81;20995;-92
2022/09/20 05:35:08;;;;;;;8.08;4.80;;;;;;;12.55;76.38;100594.09;1758548;81;21277;-90
2022/09/20 05:37:55;;;;;;;11.43;5.72;;;;;;;12.55;76.66;100591.47;1758361;81;21002;-91
2022/09/20 05:41:01;;;;;;;8.50;5.95;;;;;;;12.58;76.95;100610.98;1758460;80;20901;-92
2022/09/20 05:44:10;;;;;;;11.38;9.23;;;;;;;12.58;76.95;100607.89;1758479;81;20928;-92
2022/09/20 05:47:04;;;;;;;8.45;5.22;;;;;;;12.58;77.21;100601.32;1759153;81;21386;-92
2022/09/20 05:50:11;;;;;;;5.12;3.40;;;;;;;12.59;77.44;100593.78;1758550;80;21142;-91
2022/09/20 05:53:08;;;;;;;4.65;3.20;;;;;;;12.61;77.31;100600.27;1758349;81;20853;-91
2022/09/20 05:56:04;;;;;;;3.45;2.12;;;;;;;12.65;77.35;100606.52;1758385;81;20924;-95
2022/09/20 05:59:12;;;;;;;3.05;2.47;;;;;;;12.70;77.22;100601.42;1758949;81;20924;-91
2022/09/20 06:02:10;;;;;;;3.08;2.22;;;;;;;12.73;77.01;100599.87;1759694;81;21442;-90
2022/09/20 06:05:16;;;;;;;5.22;2.92;;;;;;;12.75;77.02;100613.30;1760199;80;21284;-90
2022/09/20 06:08:33;;;;;;;7.72;3.00;;;;;;;12.76;77.08;100606.23;1760051;80;20848;-89
2022/09/20 06:11:21;;;;;;;4.20;2.52;;;;;;;12.81;77.32;100612.04;1759542;81;21022;-94
2022/09/20 06:14:26;;;;;;;2.90;2.47;;;;;;;12.85;77.48;100614.83;1760920;81;21003;-91
2022/09/20 06:17:29;;;;;;;4.08;2.95;;;;;;;12.91;77.24;100618.81;1742670;82;20961;-92
2022/09/20 06:20:20;;;;;;;6.60;1.95;;;;;;;12.99;76.98;100606.80;1740959;81;21438;-91
2022/09/20 06:22:57;;;;;;;2.98;1.85;;;;;;;13.10;76.36;100612.63;1740879;81;20925;-93
2022/09/20 06:25:52;;;;;;;4.40;1.90;;;;;;;13.18;75.68;100622.12;1716204;82;20882;-91
2022/09/20 06:28:20;;;;;;;3.60;1.72;;;;;;;13.24;75.03;100623.01;1740956;81;20943;-90
2022/09/20 06:30:50;;;;;;;3.08;1.70;;;;;;;13.31;74.83;100604.17;1741363;81;20938;-92
2022/09/20 06:33:20;;;;;;;2.50;1.75;;;;;;;13.43;74.70;100598.04;1741135;81;21973;-91
2022/09/20 06:42:05;;;;;;;16.42;11.93;;;;;;;14.22;71.97;100597.86;1740862;81;21049;-92
2022/09/20 06:44:39;;;;;;;12.78;9.38;;;;;;;14.46;70.82;100599.11;1716105;82;20985;-91
2022/09/20 06:47:04;;;;;;;12.98;10.55;;;;;;;14.58;69.14;100605.27;1739937;81;22173;-90
2022/09/20 06:49:34;;;;;;;12.98;9.30;;;;;;;14.66;68.83;100589.69;1740444;81;20863;-91
2022/09/20 06:52:06;;;;;;;12.35;7.22;;;;;;;14.86;69.39;100581.53;1740441;81;21601;-91
2022/09/20 06:54:33;;;;;;;9.50;8.13;;;;;;;15.00;69.32;100584.40;1756965;80;20904;-90
2022/09/20 06:57:04;;;;;;;11.70;9.80;;;;;;;15.17;68.38;100585.72;1758264;81;20990;-92
2022/09/20 06:59:31;;;;;;;10.48;7.97;;;;;;;15.17;68.38;100585.72;1758219;81;21278;-92
2022/09/20 07:02:01;;;;;;;14.53;7.08;;;;;;;15.41;67.50;100590.00;1759079;81;20877;-88
2022/09/20 07:04:29;;;;;;;7.62;6.28;;;;;;;15.90;67.35;100586.84;1759669;80;20868;-90
2022/09/20 07:07:03;;;;;;;8.58;7.42;;;;;;;16.34;65.22;100592.86;1759692;81;20900;-93
2022/09/20 07:09:30;;;;;;;5.05;3.27;;;;;;;16.69;62.13;100590.31;1742012;81;21553;-92
2022/09/20 07:12:01;;;;;;;6.10;5.50;;;;;;;17.08;59.06;100584.38;1758654;80;21402;-92
2022/09/20 07:14:26;;;;;;;6.58;5.60;;;;;;;17.50;58.21;100575.73;1757814;81;20928;-92
2022/09/20 07:16:53;;;;;;;10.18;6.00;;;;;;;17.97;58.03;100571.09;1759055;81;20936;-93
2022/09/20 07:19:21;;;;;;;6.78;5.45;;;;;;;18.40;56.26;100567.09;1759636;81;20940;-91
2022/09/20 07:21:48;;;;;;;4.35;3.92;;;;;;;18.73;55.51;100556.42;1759414;81;20888;-92
2022/09/20 07:24:15;;;;;;;3.72;3.25;;;;;;;19.25;55.02;100563.86;1758762;81;22211;-92
2022/09/20 07:26:54;;;;;;;3.17;2.15;;;;;;;19.92;52.95;100552.87;1760968;78;20971;-92
2022/09/20 07:29:23;;;;;;;4.92;2.05;;;;;;;20.59;50.15;100560.68;1732290;81;20896;-94
2022/09/20 07:31:49;;;;;;;2.42;1.20;;;;;;;21.20;47.65;100560.58;1759152;80;21011;-91
2022/09/20 07:34:19;;;;;;;2.30;1.10;;;;;;;21.53;45.82;100550.83;1759221;80;20900;-92
2022/09/20 07:36:48;;;;;;;3.20;1.20;;;;;;;21.80;45.08;100544.84;1759865;81;21886;-92
2022/09/20 07:39:16;;;;;;;1.87;1.42;;;;;;;22.20;45.11;100541.29;1760140;81;20881;-94
2022/09/20 07:41:49;;;;;;;1.47;1.10;;;;;;;22.71;43.30;100538.34;1760090;80;20975;-92
2022/09/20 07:44:23;;;;;;;2.22;1.35;;;;;;;23.04;42.84;100537.72;1759899;81;20949;-91
2022/09/20 07:46:51;;;;;;;2.83;1.40;;;;;;;23.34;41.96;100539.20;1759542;81;20994;-92
2022/09/20 07:49:18;;;;;;;2.77;1.00;;;;;;;23.38;41.45;100530.63;1759237;81;22218;-90
2022/09/20 07:51:45;;;;;;;3.85;1.40;;;;;;;23.25;40.58;100535.73;1759388;80;20885;-92
2022/09/20 07:54:12;;;;;;;4.10;1.35;;;;;;;23.02;41.13;100527.69;1759322;81;20940;-89
2022/09/20 07:56:41;;;;;;;3.55;1.12;;;;;;;22.72;41.58;100528.81;1760067;81;20892;-87
2022/09/20 07:59:09;;;;;;;3.15;1.17;;;;;;;22.36;41.72;100523.08;1760546;81;20938;-89
2022/09/20 08:01:36;;;;;;;9.13;2.05;;;;;;;21.96;42.93;100519.96;1760651;81;21409;-89
2022/09/20 08:04:06;;;;;;;6.60;2.27;;;;;;;21.68;43.80;100513.66;1760918;81;20888;-87
2022/09/20 08:06:38;;;;;;;7.50;1.95;;;;;;;21.50;44.49;100509.31;1760702;81;21354;-89
2022/09/20 08:09:05;;;;;;;7.87;4.05;;;;;;;21.31;44.02;100504.25;1760366;81;21378;-89
2022/09/20 08:11:34;;;;;;;5.87;2.22;;;;;;;20.99;43.83;100505.86;1759792;81;20936;-92
2022/09/20 08:14:01;;;;;;;4.53;1.77;;;;;;;20.74;44.47;100502.27;1759392;81;21243;-93
2022/09/20 08:16:29;;;;;;;4.40;1.52;;;;;;;20.52;45.08;100499.67;1759156;81;20892;-91
2022/09/20 08:18:58;;;;;;;3.33;1.35;;;;;;;20.42;45.64;100499.77;1758762;81;20927;-91
2022/09/20 08:21:33;;;;;;;3.92;1.55;;;;;;;20.36;45.91;100490.25;1759156;80;20904;-92
2022/09/20 08:24:00;;;;;;;2.77;1.32;;;;;;;20.34;46.25;100481.58;1758835;81;21046;-89
2022/09/20 08:26:30;;;;;;;3.37;1.22;;;;;;;20.42;46.64;100486.96;1758555;81;21410;-89
2022/09/20 08:28:58;;;;;;;3.42;1.52;;;;;;;20.65;46.66;100488.10;1758750;81;20892;-88
2022/09/20 08:31:30;;;;;;;2.70;1.07;;;;;;;20.96;46.16;100480.84;1758602;81;20932;-89
2022/09/20 08:33:57;;;;;;;2.55;1.15;;;;;;;21.17;45.56;100483.06;1758500;81;21370;-93
2022/09/20 08:36:24;;;;;;;4.80;1.20;;;;;;;21.49;44.80;100488.94;1758889;81;20896;-90
2022/09/20 08:38:52;;;;;;;2.20;1.12;;;;;;;21.93;45.20;100486.42;1759136;81;21211;-89
2022/09/20 08:41:39;;;;;;;2.45;1.37;;;;;;;22.56;44.20;100480.75;1760962;78;20901;-88
2022/09/20 08:44:10;;;;;;;3.83;2.27;;;;;;;23.23;43.17;100480.23;1759776;78;20869;-89
2022/09/20 08:46:40;;;;;;;6.30;4.08;;;;;;;23.85;42.06;100495.31;1758787;80;20924;-90
2022/09/20 08:49:09;;;;;;;12.85;4.80;;;;;;;24.30;41.21;100502.91;1759409;80;20868;-89
2022/09/20 08:51:41;;;;;;;4.47;2.83;;;;;;;24.49;40.54;100503.38;1742233;80;20932;-91
2022/09/20 08:54:11;;;;;;;10.05;2.87;;;;;;;24.62;40.28;100508.92;1758947;81;20935;-90
2022/09/20 08:56:37;;;;;;;5.62;3.02;;;;;;;24.72;40.38;100508.62;1742593;81;20884;-92
2022/09/20 08:59:05;;;;;;;5.05;2.87;;;;;;;25.00;40.51;100500.70;1759529;81;20872;-90
2022/09/20 09:01:32;;;;;;;6.10;2.85;;;;;;;25.02;40.49;100500.83;1742640;81;20959;-92
2022/09/20 09:04:22;;;;;;;8.73;2.90;;;;;;;24.91;40.25;100504.52;1759635;81;21236;-92
2022/09/20 09:06:51;;;;;;;4.08;2.35;;;;;;;24.59;40.85;100494.56;1739763;81;21022;-92
2022/09/20 09:09:23;;;;;;;4.60;2.55;;;;;;;24.23;41.33;100491.75;1759922;81;20845;-91
2022/09/20 09:11:52;;;;;;;8.58;3.35;;;;;;;23.88;41.89;100482.91;1760200;81;20979;-90
2022/09/20 09:17:20;;;;;;;9.20;5.62;;;;;;;23.28;43.36;100478.38;1744864;81;21269;-89
2022/09/20 09:19:57;;;;;;;7.60;3.92;;;;;;;23.04;43.74;100484.73;1758014;81;20989;-90
2022/09/20 09:22:44;;;;;;;6.45;3.58;;;;;;;22.97;44.09;100479.22;1758532;81;20885;-88
2022/09/20 09:25:33;;;;;;;13.50;3.47;;;;;;;22.74;44.40;100473.34;1758411;81;21492;-89
2022/09/20 09:28:11;;;;;;;14.70;3.10;;;;;;;22.58;44.94;100473.39;1758606;81;20916;-89
2022/09/20 09:30:45;;;;;;;8.73;2.40;;;;;;;22.49;45.82;100478.45;1758278;81;21875;-89
2022/09/20 09:33:28;;;;;;;10.08;2.35;;;;;;;22.38;45.84;100472.15;1758590;81;20888;-89
2022/09/20 09:36:14;;;;;;;13.98;2.30;;;;;;;22.22;46.04;100471.20;1758409;80;20984;-89
2022/09/20 09:38:48;;;;;;;8.23;1.72;;;;;;;21.99;46.85;100470.21;1758442;81;20920;-88
2022/09/20 09:41:34;;;;;;;7.25;2.05;;;;;;;21.82;47.28;100467.58;1752102;80;20885;-88
2022/09/20 09:44:08;;;;;;;10.05;2.87;;;;;;;21.63;47.62;100461.25;1744106;81;21309;-88
2022/09/20 09:46:33;;;;;;;3.65;1.62;;;;;;;21.37;48.26;100462.24;1744649;81;20889;-91
2022/09/20 09:49:16;;;;;;;4.92;2.08;;;;;;;21.15;48.97;100463.72;1734197;82;21027;-89
2022/09/20 09:52:14;;;;;;;6.97;2.17;;;;;;;20.99;49.58;100451.71;1745170;81;20866;-88
2022/09/20 09:56:14;;;;;;;7.35;1.75;;;;;;;20.96;50.21;100454.69;1799970;79;22877;-90
2022/09/20 09:59:16;;;;;;;7.97;2.30;;;;;;;20.81;50.29;100463.80;1698708;82;21002;-90
2022/09/20 10:02:31;;;;;;;5.80;1.95;;;;;;;20.77;50.88;100448.66;1696352;83;21184;-89
2022/09/20 10:05:30;;;;;;;4.28;1.50;;;;;;;20.87;51.04;100440.50;1623598;88;20971;-89
2022/09/20 10:08:42;;;;;;;3.27;1.52;;;;;;;21.03;51.25;100437.89;1670359;85;20962;-90
2022/09/20 10:11:44;;;;;;;4.05;1.92;;;;;;;21.31;51.11;100437.56;1656236;85;20962;-92
2022/09/20 10:14:23;;;;;;;1.75;1.10;;;;;;;21.49;50.80;100432.91;1634821;86;21000;-89
2022/09/20 10:17:05;;;;;;;1.80;1.60;;;;;;;21.86;50.72;100424.86;1656807;85;21360;-88
2022/09/20 10:20:20;;;;;;;4.22;1.57;;;;;;;22.22;50.32;100427.63;1655993;85;20965;-89
2022/09/20 10:23:08;;;;;;;2.77;2.08;;;;;;;22.58;50.02;100432.48;1635201;86;20958;-89
2022/09/20 10:26:02;;;;;;;4.22;1.25;;;;;;;22.87;48.46;100426.45;1657279;85;20993;-89
2022/09/20 10:29:04;;;;;;;4.87;1.25;;;;;;;23.11;48.45;100419.63;1656816;85;21112;-91
2022/09/20 10:31:46;;;;;;;3.90;1.50;;;;;;;23.28;47.71;100419.00;1656739;85;21196;-91
2022/09/20 10:34:47;;;;;;;3.10;1.35;;;;;;;23.25;47.37;100415.84;1655594;85;21955;-90
2022/09/20 10:37:31;;;;;;;1.85;1.35;;;;;;;23.07;47.61;100415.64;1654945;86;20954;-91
2022/09/20 10:43:13;;;;;;;5.87;1.42;;;;;;;22.73;47.89;100412.01;1655080;85;20970;-90
2022/09/20 10:43:14;;;;;;;2.27;1.10;;;;;;;22.44;48.94;100408.16;1687037;84;20986;-89
2022/09/20 10:45:49;;;;;;;2.25;1.52;;;;;;;22.39;49.25;100413.67;1726372;81;21220;-92
2022/09/20 10:48:41;;;;;;;1.62;1.32;;;;;;;22.29;49.30;100419.24;1725670;81;21248;-92
2022/09/20 10:51:36;;;;;;;2.40;1.10;;;;;;;22.15;49.36;100407.42;1725917;82;20883;-94
2022/09/20 10:54:27;;;;;;;14.10;11.75;;;;;;;21.99;49.98;100397.63;1721657;82;21046;-91
2022/09/20 10:57:09;;;;;;;8.75;4.47;;;;;;;21.88;51.05;100400.67;1746824;81;20988;-92
2022/09/20 11:00:06;;;;;;;4.40;3.55;;;;;;;21.80;51.51;100392.16;1742482;80;21003;-91
2022/09/20 11:03:05;;;;;;;9.45;2.77;;;;;;;21.75;51.83;100397.19;1747176;81;20948;-90
2022/09/20 11:05:44;;;;;;;3.83;1.75;;;;;;;21.68;52.00;100395.70;1746075;81;20976;-88
2022/09/20 11:08:21;;;;;;;5.50;2.75;;;;;;;21.55;51.62;100391.90;1745860;81;21003;-91
2022/09/20 11:10:54;;;;;;;11.97;10.80;;;;;;;21.42;52.38;100391.90;1745824;81;20885;-89
2022/09/20 11:13:44;;;;;;;7.63;4.70;;;;;;;21.35;52.70;100390.05;1746585;82;21200;-90
2022/09/20 11:16:21;;;;;;;11.85;5.03;;;;;;;21.28;53.31;100386.72;1747841;78;20933;-89
2022/09/20 11:18:57;;;;;;;8.98;5.47;;;;;;;21.24;53.52;100388.55;1746872;80;20893;-91
2022/09/20 11:21:36;;;;;;;12.28;3.75;;;;;;;21.21;54.32;100383.06;1733540;81;20933;-89
2022/09/20 11:24:21;;;;;;;8.95;3.45;;;;;;;21.24;54.29;100383.22;1745889;81;21011;-89
2022/09/20 11:26:59;;;;;;;8.55;3.35;;;;;;;21.23;54.99;100382.39;1745476;81;21246;-89
2022/09/20 11:29:38;;;;;;;36.28;28.98;;;;;;;21.25;55.20;100383.03;1742187;80;20948;-90
2022/09/20 11:32:31;;;;;;;10.32;4.60;;;;;;;21.26;55.22;100382.05;1745593;81;20936;-91
2022/09/20 11:35:28;;;;;;;4.62;3.37;;;;;;;21.23;55.08;100384.20;1709641;82;20897;-86
2022/09/20 11:38:20;;;;;;;5.92;3.70;;;;;;;21.10;54.68;100378.89;1745859;82;20899;-91
2022/09/20 11:40:59;;;;;;;9.13;5.83;;;;;;;20.94;54.71;100386.86;1745756;81;21824;-90
2022/09/20 11:43:29;;;;;;;7.22;4.80;;;;;;;20.80;55.42;100377.69;1745341;81;21520;-90
2022/09/20 11:45:59;;;;;;;7.50;4.10;;;;;;;20.75;55.85;100379.20;1745728;81;21402;-90
2022/09/20 11:48:34;;;;;;;8.35;4.85;;;;;;;20.70;55.94;100378.36;1745888;81;21405;-89
2022/09/20 11:51:49;;;;;;;10.13;4.37;;;;;;;20.66;56.21;100378.34;1745959;81;20889;-90
2022/09/20 11:54:36;;;;;;;8.08;3.60;;;;;;;20.58;56.55;100381.81;1748483;80;21312;-90
2022/09/20 11:57:04;;;;;;;5.03;4.15;;;;;;;20.49;56.92;100388.91;1757761;81;20939;-91
2022/09/20 11:59:40;;;;;;;9.73;4.83;;;;;;;20.41;57.19;100381.39;1759370;81;21862;-90
2022/09/20 12:02:24;;;;;;;5.85;3.52;;;;;;;20.33;57.46;100382.22;1758815;81;20931;-91
2022/09/20 12:04:52;;;;;;;7.12;4.78;;;;;;;20.26;57.89;100380.69;1710939;82;21664;-88
2022/09/20 12:07:26;;;;;;;9.18;5.33;;;;;;;20.21;57.95;100382.16;1711311;83;21138;-91
2022/09/20 12:10:07;;;;;;;7.22;4.70;;;;;;;20.16;58.04;100379.14;1711542;84;21040;-91
2022/09/20 12:12:42;;;;;;;19.65;13.93;;;;;;;20.09;58.10;100379.78;1711577;83;20871;-90
2022/09/20 12:15:34;;;;;;;7.28;5.12;;;;;;;20.04;58.35;100372.78;1711483;83;21033;-90
2022/09/20 12:18:31;;;;;;;8.30;3.62;;;;;;;20.04;58.65;100374.11;1711433;84;21388;-92
2022/09/20 12:21:02;;;;;;;9.03;6.00;;;;;;;20.00;58.57;100379.91;1711916;83;21361;-91
2022/09/20 12:23:56;;;;;;;10.58;5.22;;;;;;;19.91;59.06;100380.88;1711584;83;21020;-90
2022/09/20 12:26:39;;;;;;;7.43;4.00;;;;;;;19.87;59.11;100383.83;1711166;83;21003;-89
2022/09/20 12:29:31;;;;;;;15.30;3.25;;;;;;;19.85;59.41;100378.33;1711149;83;20982;-91
2022/09/20 12:32:02;;;;;;;9.18;4.03;;;;;;;19.84;59.24;100374.84;1710907;83;20952;-91
2022/09/20 12:34:35;;;;;;;12.03;4.55;;;;;;;19.81;59.01;100370.32;1707690;83;21286;-90
2022/09/20 12:37:09;;;;;;;8.73;4.75;;;;;;;19.74;59.61;100372.78;1713928;81;20918;-91
2022/09/20 12:39:38;;;;;;;18.00;7.33;;;;;;;19.74;59.83;100371.95;1713018;83;20939;-93
2022/09/20 12:42:20;;;;;;;15.00;7.47;;;;;;;19.72;59.65;100363.29;1738987;80;20964;-91
2022/09/20 12:44:52;;;;;;;11.48;7.25;;;;;;;19.70;59.84;100365.27;1759095;81;20998;-91
2022/09/20 12:47:33;;;;;;;10.63;6.25;;;;;;;19.66;60.20;100361.58;1758476;81;21405;-90
2022/09/20 12:52:52;;;;;;;13.78;7.92;;;;;;;19.64;60.76;100350.26;1759733;81;21011;-90
2022/09/20 12:55:32;;;;;;;11.45;5.92;;;;;;;19.63;61.03;100345.94;1751542;81;20952;-91